Tombos, Brazil
Current Conditions -  °F | °C
As of 4:00 PM on Monday 26 Jan 2015 (Local Time) from SBCP Reporting Station
Few Clouds Few Clouds  
Wind Chill: 93°   Ceiling: Unl
Heat Index: 99°   Visibility: 6mi
Dew Point: 70°   Wind: 18mph
Humidity: 46%   Direction: 70°ENE
Pressure: 29.85"   Gusts: NA
Location:  20.9°S, 42.02°W
Report Text: SBCP 261800Z 07016KT 9999 FEW030 34/21 Q1011
Loading
Personal Weather Stations






























Interactive Weather Map New forecast layout! Learn more

10-Day Weather Forecast

Advertisements
Track Severe Weather on mobile